Irvine, Canada
Current Conditions -  °F | °C
As of 8:00 AM on Friday 24 Oct 2014 (Local Time) from CYXH Reporting Station
Broken Clouds Broken Clouds  
Wind Chill: 42°   Ceiling: 28000
Heat Index: 48°   Visibility: 30mi
Dew Point: 28°   Wind: 17mph
Humidity: 46%   Direction: 260°W
Pressure: 29.85"   Gusts: 25mph
Location:  49.96°N, 110.27°W
Report Text: CYXH 241400Z 26015G22KT 30SM BKN280 09/M02 A2985 RMK CI5 SLP116
Loading
Personal Weather Stations






























Interactive Weather Map
Tropical Storm Tracking
New forecast layout! Learn more

10-Day Weather Forecast

Advertisements
Track Severe Weather on mobile